Conway, MO (65632)

10:14 AM CDT on August 29, 2016 (GMT -0500)
S. Newport, Conway | | Change Station

Elev 1394 ft 37.50 °N, 92.83 °W | Updated 20 seconds ago

Clear
Clear
92.1 °F
Feels Like 99 °F
N
3.1
Wind Variable Wind from WNW
Gusts 3.8 mph

Today
High -- | Low -- °F
--% Chance of Precip.
Yesterday
High -- | Low -- °F
Precip. -- in
Pressure 30.19 in
Visibility 10.0 miles
Clouds Clear
Heat Index 99 °F
Dew Point 72 °F
Humidity 51%
Rainfall 0.00 in
Snow Depth Not available.
6:39 AM 7:43 PM
Waning Crescent, 8% visible
METAR KTBN 291458Z AUTO 05002KT 10SM CLR 28/23 A3021 RMK AO2 SLP221 T02810225 51012
Pressure 30.19 in
Visibility 10.0 miles
Clouds Clear
Heat Index 99 °F
Dew Point 72 °F
Humidity 51%
Rainfall 0.00 in
Snow Depth Not available.
6:39 AM 7:43 PM
Waning Crescent, 8% visible
METAR KTBN 291458Z AUTO 05002KT 10SM CLR 28/23 A3021 RMK AO2 SLP221 T02810225 51012

10-Day Weather Forecast

Almanac

Astronomy

Aug. 29, 2016 Rise Set
Actual Time
Civil Twilight
Nautical Twilight
Astronomical Twilight
Moon
Length of Visible Light
Length of Day
Tomorrow will be .
, % of the Moon is Illuminated

Today's Extremes

State Highs State Lows

Community

WunderPhotos

Upload Photos

1,935,841 photos uploaded!

WunderBlog® & News

Nearby

Air Quality

  Air Quality AQ Index Pollutant
Not available.

Snow Depth

Station Depth Elevation

Earthquake Activity

City Distance Mag. Time & Date
Minimum magnitude displayed is 2.5.

Coastal Water Temperatures

Place Temperature

Stations

Nearby Weather Stations

Station Location Temp. Windchill Dew Point Humidity Wind Precip. Elev Updated Type
                   

Watches & Warnings

There are currently no watches in effect.